Aeroporto :
LOGIN :

Iscrizione | Disclaimer

   EN    FR    IT 

 










Sommario :    VFR   VFR Marginale   IFR   IFR Intensivo   IFR Molto Intensivo
Visibilità : 
Base nubi : 
>= 8 km
>= 3000ft
5 / 8 km
1000 / 3000 ft
1500m / 5 km
500 / 1000 ft
800 / 1500m
200 / 500 ft
< 800m
< 200 ft
Simboli :   Temporali  Nebbia  Neve Forte  Precipitazioni Forti  Vento > 20 kt
SIGMETs :   Varie  Temporali  Ghiacco  Turbolenza  Onda orograficha  Ceneri Vulcaniche






- Altitudine del aeroporto : 375 ft
- Codice IATA : MST


EHBK - Maastricht Aachen

ULTIMO METAR :
  • 210025Z AUTO 24009KT 200V280 9999 NCD 03/02 Q1020

METARs OBSOLETI :
  • 202355Z AUTO 24009KT 210V280 9999 FEW036 03/01 Q1020
  • 202325Z AUTO 24009KT 210V290 9999 FEW035 03/01 Q1019
  • 202255Z AUTO 26009KT 210V320 9999 FEW028 03/01 Q1018
  • 202225Z AUTO 26009KT 220V320 9999 NSC 03/02 Q1017

TAF TAF EHBK
Valido dal 21 a 00 ore il 22 a 06 ore UTC


202250Z 2100/2206 27012KT 9999 FEW025
BECMG 2100/2103 24010KT
BECMG 2110/2113 24016G26KT



MetMap, La meteo Aeronautica in un colpo d'occhio ! - Copyright ORBIFLY Dicembre 2007 - Disclaimer

ORBIFLY MET'MAP TEAM :

Programmazione e sviluppo : Alexandra Zaïnal
Concezione : Baudouin d'Aumeries
Aiuto per la programmazione : Marc-Olivier Méhu
Supporto tecnico e logistico : Manuel Goepfert
Aiuto per la traduzione : Arnaldo La Scala

Contatto : metmap@orbifly.com




FONTI E CREDITI :

   NOAA